CheckWX is a tool to help pilots better visualize weather data.  It is not intended as a substitute for an official pre-flight weather briefing.

16:02:29 UTC

FIMR TAF
Sir Charles Gaetan Duval Airport
Port Mathurin, Mauritius
TAF FIMR 181125Z 1812/1906 09015G30KT 9999 SCT018 TEMPO 1900/1906 7000 -SHRA FEW010 BKN016 BKN050

Mar-18@
12:00 UTC

Mar-18 @ 12:00 UTC

Mar-19@
06:00 UTC

Mar-19 @ 06:00 UTC

TAF FIMR 181125Z 1812/1906 09015G30KT 9999 SCT018
Wind
  • 090° at 15 KTS
  • {Gusting to 30 KTS
Cloud Levels
  • Scattered at 1,800' AGL

Mar-19@
00:00 UTC

Mar-19 @ 00:00 UTC

Mar-19@
06:00 UTC

Mar-19 @ 06:00 UTC

TEMPO 1900/1906 7000 -SHRA FEW010 BKN016 BKN050

Temporary

Temporary Changes expected for less than half the time period

Conditions
Light Rain
Cloud Levels
  • Few at 1,000' AGL
  • Broken at 1,600' AGL
  • Broken at 5,000' AGL